Estación Meteorológica Peña el Pijo (Robertgarden) [ 12/11/18 10:28:58 CET ]

Fecha Hora Presion(HPa) Temp (°C) Humedad % Rocio (°C) Viento ( m/s) Direccion Lluvia 1Hora(mm) Lluvia 24H(mm) LLuvia Total(mm)
2018-Apr-05 01:01:52 1010.400 6.9 67 1.2         185.44
2018-Apr-05 02:01:31 1010.600 6.4 69 1.1         185.44
2018-Apr-05 03:05:11 1010.200 5.3 73 0.8         185.44
2018-Apr-05 04:01:53 1010.500 4.2 76 0.3         185.44
2018-Apr-05 05:01:46 1009.800 2.9 78 -0.6         185.44
2018-Apr-05 06:01:51 1009.600 2.3 80 -0.8         185.44
2018-Apr-05 07:01:38 1010.000 1.6 81 -1.3         185.44
2018-Apr-05 08:01:41 1010.100 0.9 82 -1.9         185.44
2018-Apr-05 09:01:37 1010.100 2.9 84 0.4         185.44
2018-Apr-05 10:01:37 1009.900 8.6 75 4.4         185.44
2018-Apr-05 11:01:45 1010.000 15.1 52 5.3         185.44
2018-Apr-05 12:01:49 1009.500 17.2 40 3.5         185.44
2018-Apr-05 13:01:37 1008.700 19.9 32 2.6         185.44
2018-Apr-05 14:01:37 1008.500 20.3 26 -0.1 1.1 WSW     185.44
2018-Apr-05 15:01:50 1008.100 21.4 27 1.5 1.4 S     185.44
2018-Apr-05 16:01:34 1007.400 22.1 28 2.6         185.44
2018-Apr-05 17:02:06 1006.900 22.6 25 1.4 4.4 S     185.44
2018-Apr-05 18:01:49 1006.800 21.0 29 2.2         185.44
2018-Apr-05 19:01:42 1006.500 19.5 31 1.9 0.4 S     185.44
2018-Apr-05 20:01:54 1006.400 17.0 35 1.3         185.44
2018-Apr-05 21:02:03 1006.400 14.8 40 1.3         185.44
2018-Apr-05 22:01:51 1006.900 12.8 44 0.8         185.44
2018-Apr-05 23:01:57 1007.200 11.0 51 1.2         185.44

Temperatura Máxima:22°    Temperatura Mínima:
Presión Máxima:1010.600 Hpa    Presión Mínima:1006.400 Hpa


Volver